Ryuhomaru — JD2639 — position and weather

sailwx.info

Track history (hours):
 
Tides and Currents Weather Stations Pressure Air Temp Water Temp Dewpoint Dewpoint Depression Visibility Wind Speed Wind Dir Waves Ship Positions

Ryuhomaru

Last reported at 2015-Jul-29 19:33 UTC. Time now 2015-Jul-29 19:59 UTC.
Position N 34°34' E 135°24'.

Length 42 m; draft 3.5 m.

Type: Tug. MMSI: 431000586.

Date/timePositionNaut miles runAvg speedWind from/ knotsBaromVisibWave heightAir tempDewpointWater temp
2015-Jul-29 19:33N 34°34' E 135°24'0 0.1
2015-Jul-29 18:33N 34°34' E 135°24'0 0.1
2015-Jul-29 17:33N 34°34' E 135°24'0 0.1
2015-Jul-29 16:33N 34°34' E 135°24'0 0.0
2015-Jul-29 15:28N 34°34' E 135°24'0 0.0
2015-Jul-29 14:32N 34°34' E 135°24'0 0.1
2015-Jul-29 13:33N 34°34' E 135°24'0 0.1
2015-Jul-29 12:33N 34°34' E 135°24'0 0.0
2015-Jul-29 11:30N 34°34' E 135°24'0 0.1
2015-Jul-29 10:32N 34°34' E 135°24'0 0.1
2015-Jul-29 09:33N 34°34' E 135°24'0 0.1
2015-Jul-29 08:33N 34°34' E 135°24'0 0.0
2015-Jul-29 07:33N 34°34' E 135°24'0 0.1
2015-Jul-29 06:33N 34°34' E 135°24'0 0.1
2015-Jul-29 05:32N 34°34' E 135°24'0 0.1
2015-Jul-29 04:33N 34°34' E 135°24'0 0.1
2015-Jul-29 03:33N 34°34' E 135°24'3 1.1
2015-Jul-29 00:32N 34°33' E 135°20'1 1.1
2015-Jul-28 23:33N 34°32' E 135°21'3 2.7
2015-Jul-28 22:31N 34°31' E 135°23'2 1.7
2015-Jul-28 21:32N 34°32' E 135°23'3 3.1
2015-Jul-28 20:31N 34°33' E 135°27'0 0.0
2015-Jul-28 06:33N 34°33' E 135°26'1 0.9
2015-Jul-28 05:33N 34°33' E 135°25'1 1.3
2015-Jul-28 04:33N 34°33' E 135°27'0 0.0
2015-Jul-28 03:28N 34°33' E 135°27'2 2.4
2015-Jul-28 02:28N 34°34' E 135°24'5 5.2
2015-Jul-28 01:33N 34°39' E 135°25'2 2.4
2015-Jul-28 00:33N 34°37' E 135°23'1 1.4
2015-Jul-27 23:32N 34°36' E 135°24'3 3.5
2015-Jul-27 22:33N 34°32' E 135°24'2 2.1
2015-Jul-27 21:33N 34°33' E 135°26'1 0.7
2015-Jul-27 20:33N 34°33' E 135°27'0 0.0
2015-Jul-26 07:22N 34°33' E 135°27'1 0.8
2015-Jul-26 06:33N 34°33' E 135°26'0 0.2
2015-Jul-26 05:33N 34°33' E 135°26'5 4.5
2015-Jul-26 04:33N 34°34' E 135°20'4 4.5
2015-Jul-26 03:33N 34°33' E 135°26'1 0.7
2015-Jul-26 02:25N 34°33' E 135°27'0 0.0
2015-Jul-26 01:32N 34°33' E 135°27'0 0.0
2015-Jul-26 00:33N 34°33' E 135°27'0 0.0
2015-Jul-25 23:33N 34°33' E 135°27'2 1.9
2015-Jul-25 22:33N 34°33' E 135°24'1 0.8
2015-Jul-25 21:33N 34°33' E 135°25'1 1.1
2015-Jul-25 20:33N 34°33' E 135°27'0 0.0
2015-Jul-24 09:08N 34°33' E 135°27'2 4.3
2015-Jul-24 08:33N 34°32' E 135°24'1 1.2
2015-Jul-24 07:29N 34°31' E 135°24'0 0.0
2015-Jul-24 06:31N 34°31' E 135°24'0 0.0
2015-Jul-24 05:32N 34°31' E 135°24'0 0.0
2015-Jul-24 04:33N 34°31' E 135°24'1 0.9
2015-Jul-24 03:33N 34°31' E 135°23'1 0.7
2015-Jul-24 02:33N 34°32' E 135°23'1 1.2
2015-Jul-24 01:32N 34°31' E 135°23'0 0.0
2015-Jul-24 00:33N 34°31' E 135°23'3 2.4
2015-Jul-23 23:09N 34°34' E 135°24'3 2.1
2015-Jul-23 21:33N 34°33' E 135°20'5 4.9
2015-Jul-23 20:31N 34°33' E 135°27'0 0.0
2015-Jul-23 09:33N 34°33' E 135°27'4 3.5
2015-Jul-23 08:32N 34°31' E 135°23'1 0.2
2015-Jul-23 05:06N 34°31' E 135°24'0 0.2
2015-Jul-23 04:32N 34°31' E 135°24'3 1.3
2015-Jul-23 02:14N 34°33' E 135°22'2 3.0
2015-Jul-23 01:34N 34°34' E 135°20'0 0.1
2015-Jul-23 00:33N 34°35' E 135°20'2 1.7
2015-Jul-22 23:34N 34°33' E 135°19'7 7.0
2015-Jul-22 22:33N 34°26' E 135°19'2 2.3
2015-Jul-22 21:31N 34°28' E 135°19'8 5.8
2015-Jul-22 20:08N 34°33' E 135°27'4 0.2
2015-Jul-22 03:21N 34°33' E 135°22'2 1.8
2015-Jul-22 02:27N 34°33' E 135°24'3 1.1
2015-Jul-22 00:04N 34°31' E 135°24'1 1.7
2015-Jul-21 23:29N 34°31' E 135°23'1 0.9
2015-Jul-21 22:30N 34°32' E 135°24'1 1.3
2015-Jul-21 21:33N 34°33' E 135°24'2 0.1
2015-Jul-21 07:07N 34°33' E 135°27'2 1.1
2015-Jul-21 05:23N 34°34' E 135°24'1 1.3
2015-Jul-21 04:21N 34°33' E 135°23'2 2.6
2015-Jul-21 03:33N 34°33' E 135°20'5 4.6
2015-Jul-21 02:33N 34°33' E 135°26'0 0.0
2015-Jul-21 01:33N 34°33' E 135°26'3 2.8
2015-Jul-21 00:33N 34°33' E 135°23'3 3.4
2015-Jul-20 23:33N 34°34' E 135°19'1 1.4
2015-Jul-20 22:33N 34°34' E 135°20'4 3.6
2015-Jul-20 21:31N 34°33' E 135°25'  
Track history (hours):
 
Tides and Currents Weather Stations Pressure Air Temp Water Temp Dewpoint Dewpoint Depression Visibility Wind Speed Wind Dir Waves Ship Positions

Ryuhomaru

Last reported at 2015-Jul-29 19:33 UTC. Time now 2015-Jul-29 19:59 UTC.
Position N 34°34' E 135°24'.

Length 42 m; draft 3.5 m.

Type: Tug. MMSI: 431000586.

Date/timePositionNaut miles runAvg speedWind from/ knotsBaromVisibWave heightAir tempDewpointWater temp
2015-Jul-29 19:33N 34°34' E 135°24'0 0.1
2015-Jul-29 18:33N 34°34' E 135°24'0 0.1
2015-Jul-29 17:33N 34°34' E 135°24'0 0.1
2015-Jul-29 16:33N 34°34' E 135°24'0 0.0
2015-Jul-29 15:28N 34°34' E 135°24'0 0.0
2015-Jul-29 14:32N 34°34' E 135°24'0 0.1
2015-Jul-29 13:33N 34°34' E 135°24'0 0.1
2015-Jul-29 12:33N 34°34' E 135°24'0 0.0
2015-Jul-29 11:30N 34°34' E 135°24'0 0.1
2015-Jul-29 10:32N 34°34' E 135°24'0 0.1
2015-Jul-29 09:33N 34°34' E 135°24'0 0.1
2015-Jul-29 08:33N 34°34' E 135°24'0 0.0
2015-Jul-29 07:33N 34°34' E 135°24'0 0.1
2015-Jul-29 06:33N 34°34' E 135°24'0 0.1
2015-Jul-29 05:32N 34°34' E 135°24'0 0.1
2015-Jul-29 04:33N 34°34' E 135°24'0 0.1
2015-Jul-29 03:33N 34°34' E 135°24'3 1.1
2015-Jul-29 00:32N 34°33' E 135°20'1 1.1
2015-Jul-28 23:33N 34°32' E 135°21'3 2.7
2015-Jul-28 22:31N 34°31' E 135°23'2 1.7
2015-Jul-28 21:32N 34°32' E 135°23'3 3.1
2015-Jul-28 20:31N 34°33' E 135°27'0 0.0
2015-Jul-28 06:33N 34°33' E 135°26'1 0.9
2015-Jul-28 05:33N 34°33' E 135°25'1 1.3
2015-Jul-28 04:33N 34°33' E 135°27'0 0.0
2015-Jul-28 03:28N 34°33' E 135°27'2 2.4
2015-Jul-28 02:28N 34°34' E 135°24'5 5.2
2015-Jul-28 01:33N 34°39' E 135°25'2 2.4
2015-Jul-28 00:33N 34°37' E 135°23'1 1.4
2015-Jul-27 23:32N 34°36' E 135°24'3 3.5
2015-Jul-27 22:33N 34°32' E 135°24'2 2.1
2015-Jul-27 21:33N 34°33' E 135°26'1 0.7
2015-Jul-27 20:33N 34°33' E 135°27'0 0.0
2015-Jul-26 07:22N 34°33' E 135°27'1 0.8
2015-Jul-26 06:33N 34°33' E 135°26'0 0.2
2015-Jul-26 05:33N 34°33' E 135°26'5 4.5
2015-Jul-26 04:33N 34°34' E 135°20'4 4.5
2015-Jul-26 03:33N 34°33' E 135°26'1 0.7
2015-Jul-26 02:25N 34°33' E 135°27'0 0.0
2015-Jul-26 01:32N 34°33' E 135°27'0 0.0
2015-Jul-26 00:33N 34°33' E 135°27'0 0.0
2015-Jul-25 23:33N 34°33' E 135°27'2 1.9
2015-Jul-25 22:33N 34°33' E 135°24'1 0.8
2015-Jul-25 21:33N 34°33' E 135°25'1 1.1
2015-Jul-25 20:33N 34°33' E 135°27'0 0.0
2015-Jul-24 09:08N 34°33' E 135°27'2 4.3
2015-Jul-24 08:33N 34°32' E 135°24'1 1.2
2015-Jul-24 07:29N 34°31' E 135°24'0 0.0
2015-Jul-24 06:31N 34°31' E 135°24'0 0.0
2015-Jul-24 05:32N 34°31' E 135°24'0 0.0
2015-Jul-24 04:33N 34°31' E 135°24'1 0.9
2015-Jul-24 03:33N 34°31' E 135°23'1 0.7
2015-Jul-24 02:33N 34°32' E 135°23'1 1.2
2015-Jul-24 01:32N 34°31' E 135°23'0 0.0
2015-Jul-24 00:33N 34°31' E 135°23'3 2.4
2015-Jul-23 23:09N 34°34' E 135°24'3 2.1
2015-Jul-23 21:33N 34°33' E 135°20'5 4.9
2015-Jul-23 20:31N 34°33' E 135°27'0 0.0
2015-Jul-23 09:33N 34°33' E 135°27'4 3.5
2015-Jul-23 08:32N 34°31' E 135°23'1 0.2
2015-Jul-23 05:06N 34°31' E 135°24'0 0.2
2015-Jul-23 04:32N 34°31' E 135°24'3 1.3
2015-Jul-23 02:14N 34°33' E 135°22'2 3.0
2015-Jul-23 01:34N 34°34' E 135°20'0 0.1
2015-Jul-23 00:33N 34°35' E 135°20'2 1.7
2015-Jul-22 23:34N 34°33' E 135°19'7 7.0
2015-Jul-22 22:33N 34°26' E 135°19'2 2.3
2015-Jul-22 21:31N 34°28' E 135°19'8 5.8
2015-Jul-22 20:08N 34°33' E 135°27'4 0.2
2015-Jul-22 03:21N 34°33' E 135°22'2 1.8
2015-Jul-22 02:27N 34°33' E 135°24'3 1.1
2015-Jul-22 00:04N 34°31' E 135°24'1 1.7
2015-Jul-21 23:29N 34°31' E 135°23'1 0.9
2015-Jul-21 22:30N 34°32' E 135°24'1 1.3
2015-Jul-21 21:33N 34°33' E 135°24'2 0.1
2015-Jul-21 07:07N 34°33' E 135°27'2 1.1
2015-Jul-21 05:23N 34°34' E 135°24'1 1.3
2015-Jul-21 04:21N 34°33' E 135°23'2 2.6
2015-Jul-21 03:33N 34°33' E 135°20'5 4.6
2015-Jul-21 02:33N 34°33' E 135°26'0 0.0
2015-Jul-21 01:33N 34°33' E 135°26'3 2.8
2015-Jul-21 00:33N 34°33' E 135°23'3 3.4
2015-Jul-20 23:33N 34°34' E 135°19'1 1.4
2015-Jul-20 22:33N 34°34' E 135°20'4 3.6
2015-Jul-20 21:31N 34°33' E 135°25'  

Dump ship's entire track history